Time;durP1;ratioP1;P1;durP2;ratioP2;P2;SDS_P1;SDS_P2;PMS_P1;PMS_P2;Temp;Humidity;BMP_temperature;BMP_pressure;BME280_temperature;BME280_humidity;BME280_pressure;Samples;Min_cycle;Max_cycle;Signal;HPM_P1;HPM_P2
2022/01/22 01:33:26;;;;;;;8.55;3.83;;;;;;;;;;5150262;27;20091;-64
2022/01/22 01:35:52;;;;;;;9.40;3.85;;;;;;;;;;5149345;27;20114;-64
2022/01/22 01:38:21;;;;;;;9.00;4.20;;;;;;;;;;5149246;27;20023;-64
2022/01/22 01:40:56;;;;;;;13.40;4.45;;;;;;;;;;5149231;27;20111;-64
2022/01/22 01:43:27;;;;;;;8.13;3.80;;;;;;;;;;5149401;27;20375;-64
2022/01/22 01:45:54;;;;;;;5.93;2.77;;;;;;;;;;5149108;27;20023;-64
2022/01/22 01:48:25;;;;;;;9.75;4.68;;;;;;;;;;5149250;27;20253;-64
2022/01/22 01:50:51;;;;;;;9.10;4.00;;;;;;;;;;5149547;27;20022;-64
2022/01/22 01:54:07;;;;;;;10.48;3.90;;;;;;;;;;5149383;27;20064;-64
2022/01/22 01:57:25;;;;;;;13.45;5.20;;;;;;;;;;5137742;27;20119;-64
2022/01/22 01:58:55;;;;;;;12.10;3.95;;;;;;;;;;5149034;27;20099;-64
2022/01/22 02:01:21;;;;;;;10.63;4.30;;;;;;;;;;5149022;27;20023;-62
2022/01/22 02:03:47;;;;;;;10.27;4.20;;;;;;;;;;5148948;27;20118;-64
2022/01/22 02:06:13;;;;;;;10.70;4.03;;;;;;;;;;5148864;27;20519;-62
2022/01/22 02:08:39;;;;;;;10.68;3.83;;;;;;;;;;5148884;27;20041;-64
2022/01/22 02:11:06;;;;;;;9.52;4.18;;;;;;;;;;5148657;27;20026;-65
2022/01/22 02:14:03;;;;;;;8.85;3.95;;;;;;;;;;5148816;27;20039;-64
2022/01/22 02:24:51;;;;;;;9.15;3.20;;;;;;;;;;5160638;27;20097;-63
2022/01/22 02:27:17;;;;;;;6.72;3.05;;;;;;;;;;5155852;27;20067;-65
2022/01/22 02:29:43;;;;;;;8.68;3.10;;;;;;;;;;5155357;27;20123;-65
2022/01/22 02:32:50;;;;;;;7.32;3.50;;;;;;;;;;5155327;27;20021;-64
2022/01/22 02:35:24;;;;;;;6.70;2.97;;;;;;;;;;5154934;27;20053;-65
2022/01/22 02:37:57;;;;;;;6.95;3.08;;;;;;;;;;5155255;27;20022;-64
2022/01/22 02:40:28;;;;;;;9.45;3.33;;;;;;;;;;5155004;27;20015;-62
2022/01/22 02:42:54;;;;;;;10.43;3.85;;;;;;;;;;5154874;27;20050;-63
2022/01/22 02:45:23;;;;;;;7.10;3.28;;;;;;;;;;5154709;27;20023;-64
2022/01/22 02:47:49;;;;;;;8.02;3.40;;;;;;;;;;5155168;27;20027;-63
2022/01/22 02:50:15;;;;;;;6.30;2.95;;;;;;;;;;5154771;27;20083;-64
2022/01/22 02:52:42;;;;;;;7.65;2.83;;;;;;;;;;5155021;27;20401;-64
2022/01/22 02:55:08;;;;;;;9.63;3.60;;;;;;;;;;5154647;27;20023;-64
2022/01/22 02:57:35;;;;;;;9.57;3.30;;;;;;;;;;5154746;27;20015;-64
2022/01/22 03:00:04;;;;;;;6.10;2.90;;;;;;;;;;5154600;27;20031;-64
2022/01/22 03:02:30;;;;;;;7.00;2.47;;;;;;;;;;5156164;27;20044;-64
2022/01/22 03:04:56;;;;;;;11.63;3.55;;;;;;;;;;5156449;27;20052;-64
2022/01/22 03:07:24;;;;;;;7.38;2.95;;;;;;;;;;5154632;27;20027;-64
2022/01/22 03:09:51;;;;;;;6.78;2.70;;;;;;;;;;5154464;27;20481;-64
2022/01/22 03:13:15;;;;;;;5.20;2.60;;;;;;;;;;5154512;27;20409;-64
2022/01/22 03:17:59;;;;;;;7.18;2.88;;;;;;;;;;5154405;27;20022;-63
2022/01/22 03:21:03;;;;;;;9.60;2.97;;;;;;;;;;5153886;27;20386;-63
2022/01/22 03:28:27;;;;;;;7.88;3.03;;;;;;;;;;5154239;27;20391;-64
2022/01/22 03:30:53;;;;;;;6.22;3.17;;;;;;;;;;5154293;27;20084;-64
2022/01/22 03:33:24;;;;;;;8.98;3.10;;;;;;;;;;5154500;27;20022;-64
2022/01/22 03:35:55;;;;;;;8.25;3.17;;;;;;;;;;5153453;27;20015;-64
2022/01/22 03:38:22;;;;;;;7.40;3.00;;;;;;;;;;5153876;27;20474;-64
2022/01/22 03:40:49;;;;;;;9.85;3.20;;;;;;;;;;5153987;27;20530;-64
2022/01/22 03:43:16;;;;;;;9.43;2.58;;;;;;;;;;5153603;27;20034;-64
2022/01/22 03:45:42;;;;;;;7.93;3.05;;;;;;;;;;5153940;27;20023;-64
2022/01/22 03:48:08;;;;;;;9.18;3.00;;;;;;;;;;5153667;27;20026;-64
2022/01/22 03:50:34;;;;;;;7.80;2.60;;;;;;;;;;5153535;27;20026;-64
2022/01/22 03:53:00;;;;;;;5.53;2.90;;;;;;;;;;5153721;27;20126;-64
2022/01/22 03:55:44;;;;;;;8.13;2.53;;;;;;;;;;5153435;27;20507;-64
2022/01/22 03:58:11;;;;;;;6.95;2.92;;;;;;;;;;5153564;27;20110;-63
2022/01/22 04:00:37;;;;;;;5.07;2.78;;;;;;;;;;5153445;27;20036;-64
2022/01/22 04:06:05;;;;;;;4.00;2.22;;;;;;;;;;5153547;27;20530;-65
2022/01/22 04:08:30;;;;;;;8.23;2.63;;;;;;;;;;5153271;27;20030;-64
2022/01/22 04:10:56;;;;;;;7.43;2.58;;;;;;;;;;5153431;27;20038;-65
2022/01/22 04:13:29;;;;;;;9.30;2.60;;;;;;;;;;5153388;27;20098;-64
2022/01/22 04:15:56;;;;;;;7.30;2.55;;;;;;;;;;5151821;27;20106;-65
2022/01/22 04:29:24;;;;;;;6.95;3.20;;;;;;;;;;5089079;28;20107;-64
2022/01/22 04:31:50;;;;;;;10.80;4.95;;;;;;;;;;5089092;28;20171;-64
2022/01/22 04:34:16;;;;;;;8.30;3.78;;;;;;;;;;5088794;28;20040;-64
2022/01/22 04:36:42;;;;;;;8.30;3.15;;;;;;;;;;5088843;28;20024;-64
2022/01/22 04:39:08;;;;;;;9.57;3.17;;;;;;;;;;5088750;28;20024;-64
2022/01/22 04:41:35;;;;;;;8.48;3.03;;;;;;;;;;5088733;28;20063;-63
2022/01/22 04:44:05;;;;;;;6.65;3.13;;;;;;;;;;5088371;28;20308;-63
2022/01/22 04:46:57;;;;;;;9.13;4.43;;;;;;;;;;5071782;28;20036;-64
2022/01/22 04:57:22;;;;;;;7.07;3.60;;;;;;;;;;5088627;28;20027;-63
2022/01/22 04:59:48;;;;;;;8.55;3.58;;;;;;;;;;5088253;28;20036;-64
2022/01/22 05:02:14;;;;;;;9.70;3.45;;;;;;;;;;5088319;28;20078;-64
2022/01/22 05:04:40;;;;;;;7.82;3.53;;;;;;;;;;5088285;28;20040;-64
2022/01/22 05:07:09;;;;;;;10.23;3.67;;;;;;;;;;5136351;27;20091;-64
2022/01/22 05:09:36;;;;;;;8.43;3.75;;;;;;;;;;5152294;27;20019;-63
2022/01/22 05:12:02;;;;;;;7.90;3.45;;;;;;;;;;5152256;27;20243;-63
2022/01/22 05:14:28;;;;;;;11.00;3.90;;;;;;;;;;5152070;27;20030;-63
2022/01/22 05:16:55;;;;;;;10.05;3.70;;;;;;;;;;5152227;27;20079;-62
2022/01/22 05:19:30;;;;;;;8.23;4.05;;;;;;;;;;5152276;27;20067;-64
2022/01/22 05:22:02;;;;;;;10.18;3.90;;;;;;;;;;5150296;27;20042;-63
2022/01/22 05:24:32;;;;;;;8.88;3.50;;;;;;;;;;5150816;27;20517;-63
2022/01/22 05:37:11;;;;;;;7.85;3.72;;;;;;;;;;5152156;27;20041;-63
2022/01/22 05:39:38;;;;;;;8.40;3.65;;;;;;;;;;5151777;27;20405;-62
2022/01/22 05:42:07;;;;;;;10.98;3.72;;;;;;;;;;5152099;27;20019;-62
2022/01/22 05:44:35;;;;;;;9.45;4.05;;;;;;;;;;5150391;27;20091;-62
2022/01/22 05:47:06;;;;;;;12.38;4.88;;;;;;;;;;5152111;27;20434;-64
2022/01/22 05:49:35;;;;;;;11.68;4.95;;;;;;;;;;5152065;27;20075;-64
2022/01/22 05:52:04;;;;;;;11.57;5.22;;;;;;;;;;5151851;27;20459;-64
2022/01/22 05:59:44;;;;;;;19.25;9.23;;;;;;;;;;5153396;27;20041;-63
2022/01/22 06:02:12;;;;;;;10.43;5.18;;;;;;;;;;5156198;27;20026;-64
2022/01/22 06:04:38;;;;;;;10.82;5.22;;;;;;;;;;5155886;27;20102;-63
2022/01/22 06:07:05;;;;;;;10.65;4.93;;;;;;;;;;5155594;27;20315;-64
2022/01/22 06:09:33;;;;;;;13.50;5.50;;;;;;;;;;5155613;27;20031;-63
2022/01/22 06:14:34;;;;;;;9.52;4.90;;;;;;;;;;5155672;27;20110;-64
2022/01/22 06:17:00;;;;;;;11.13;4.30;;;;;;;;;;5155931;27;20098;-65
2022/01/22 06:19:26;;;;;;;9.95;4.22;;;;;;;;;;5155524;27;20030;-63
2022/01/22 06:21:53;;;;;;;7.97;3.72;;;;;;;;;;5155401;27;20022;-63
2022/01/22 06:24:19;;;;;;;14.68;4.03;;;;;;;;;;5155230;27;20047;-63
2022/01/22 06:26:46;;;;;;;12.68;5.88;;;;;;;;;;5153734;27;20030;-63
2022/01/22 06:29:12;;;;;;;10.90;4.07;;;;;;;;;;5155156;27;20517;-63
2022/01/22 06:31:38;;;;;;;11.70;4.50;;;;;;;;;;5155241;27;20091;-63
2022/01/22 06:34:05;;;;;;;7.35;3.83;;;;;;;;;;5155118;27;20033;-62
2022/01/22 06:36:31;;;;;;;9.18;4.20;;;;;;;;;;5155641;27;20489;-63
2022/01/22 06:39:16;;;;;;;10.65;3.55;;;;;;;;;;5155134;27;20105;-64
2022/01/22 06:41:45;;;;;;;10.23;4.28;;;;;;;;;;5155062;27;20015;-62
2022/01/22 06:44:34;;;;;;;9.75;3.70;;;;;;;;;;5154513;27;20496;-63
2022/01/22 06:47:00;;;;;;;8.85;4.13;;;;;;;;;;5154751;27;20105;-64
2022/01/22 06:49:26;;;;;;;8.57;4.13;;;;;;;;;;5155155;27;20030;-63
2022/01/22 06:51:54;;;;;;;8.82;3.67;;;;;;;;;;5154698;27;20277;-63
2022/01/22 06:54:21;;;;;;;8.52;3.65;;;;;;;;;;5154002;27;20611;-63
2022/01/22 06:56:48;;;;;;;9.20;3.90;;;;;;;;;;5154839;27;20094;-64
2022/01/22 06:59:14;;;;;;;9.45;4.05;;;;;;;;;;5154591;27;20026;-63
2022/01/22 07:01:40;;;;;;;11.68;4.20;;;;;;;;;;5153900;27;20030;-63
2022/01/22 07:04:07;;;;;;;8.63;4.10;;;;;;;;;;5154578;27;20038;-63
2022/01/22 07:06:33;;;;;;;16.45;5.50;;;;;;;;;;5155107;27;20103;-62
2022/01/22 07:08:59;;;;;;;12.20;4.72;;;;;;;;;;5153064;27;20034;-64
2022/01/22 07:11:25;;;;;;;9.77;4.00;;;;;;;;;;5154424;27;20023;-63
2022/01/22 07:13:51;;;;;;;9.65;3.80;;;;;;;;;;5154191;27;20110;-63
2022/01/22 07:16:17;;;;;;;9.40;4.13;;;;;;;;;;5154469;27;20405;-64
2022/01/22 07:18:44;;;;;;;12.35;4.38;;;;;;;;;;5154286;27;20138;-64
2022/01/22 07:21:20;;;;;;;10.52;4.80;;;;;;;;;;5154471;27;20023;-63
2022/01/22 07:26:15;;;;;;;12.07;4.85;;;;;;;;;;5153944;27;20412;-62
2022/01/22 07:28:42;;;;;;;11.20;5.05;;;;;;;;;;5147689;27;20375;-62
2022/01/22 07:31:08;;;;;;;9.85;4.60;;;;;;;;;;5139065;27;20347;-66
2022/01/22 07:33:34;;;;;;;10.10;4.38;;;;;;;;;;5152718;27;20060;-63
2022/01/22 07:36:00;;;;;;;10.00;4.55;;;;;;;;;;5154749;27;20048;-63
2022/01/22 07:38:27;;;;;;;9.20;4.05;;;;;;;;;;5154512;27;20054;-63
2022/01/22 07:40:53;;;;;;;11.40;3.75;;;;;;;;;;5154559;27;20030;-63
2022/01/22 07:43:19;;;;;;;10.38;4.25;;;;;;;;;;5154033;27;20031;-64
2022/01/22 07:45:45;;;;;;;8.43;3.83;;;;;;;;;;5154108;27;20025;-65
2022/01/22 07:48:11;;;;;;;8.27;3.55;;;;;;;;;;5153822;27;20023;-63
2022/01/22 07:50:37;;;;;;;10.73;3.50;;;;;;;;;;5153401;27;20427;-63
2022/01/22 07:53:03;;;;;;;9.63;3.97;;;;;;;;;;5153842;27;20035;-65
2022/01/22 07:55:30;;;;;;;8.52;3.20;;;;;;;;;;5153954;27;20026;-65
2022/01/22 07:57:57;;;;;;;11.93;4.85;;;;;;;;;;5146929;27;20109;-63
2022/01/22 08:00:23;;;;;;;11.80;5.57;;;;;;;;;;5135564;27;20068;-62
2022/01/22 08:02:49;;;;;;;10.98;4.22;;;;;;;;;;5132832;27;20031;-64
2022/01/22 08:05:15;;;;;;;8.23;4.50;;;;;;;;;;5132818;27;20026;-63
2022/01/22 12:58:06;;;;;;;23.80;12.18;;;;;;;;;;5062219;28;20417;-74
2022/01/22 13:00:33;;;;;;;33.35;13.05;;;;;;;;;;5059774;28;20682;-64
2022/01/22 13:02:59;;;;;;;25.90;13.27;;;;;;;;;;5065993;28;20056;-68
2022/01/22 13:05:25;;;;;;;24.50;13.77;;;;;;;;;;5066403;28;20094;-66
2022/01/22 13:07:55;;;;;;;26.60;14.85;;;;;;;;;;5066779;28;20045;-66
2022/01/22 13:10:27;;;;;;;25.67;13.88;;;;;;;;;;5064884;28;20029;-71
2022/01/22 13:12:56;;;;;;;23.92;12.70;;;;;;;;;;5056732;28;20033;-67
2022/01/22 13:15:22;;;;;;;26.63;15.25;;;;;;;;;;5065350;28;20021;-66
2022/01/22 13:17:54;;;;;;;21.27;11.90;;;;;;;;;;5065170;28;20056;-65
2022/01/22 13:20:24;;;;;;;20.45;11.75;;;;;;;;;;5064907;28;20032;-70
2022/01/22 13:22:51;;;;;;;19.60;11.45;;;;;;;;;;5062692;28;20043;-67
2022/01/22 13:25:18;;;;;;;19.98;11.85;;;;;;;;;;5053567;28;20357;-64
2022/01/22 13:27:58;;;;;;;18.17;10.27;;;;;;;;;;5052080;28;20132;-65
2022/01/22 13:30:31;;;;;;;17.88;10.27;;;;;;;;;;5059104;28;20100;-65
2022/01/22 13:33:03;;;;;;;22.83;11.52;;;;;;;;;;5055493;28;20087;-65
2022/01/22 13:48:59;;;;;;;28.88;14.65;;;;;;;;;;5065161;28;20115;-64
2022/01/22 13:51:27;;;;;;;27.73;13.00;;;;;;;;;;5049486;28;20029;-65
2022/01/22 13:53:53;;;;;;;18.20;9.45;;;;;;;;;;5045879;28;20021;-63
2022/01/22 13:56:21;;;;;;;18.70;11.13;;;;;;;;;;5048594;28;20049;-63
2022/01/22 13:58:47;;;;;;;33.60;16.65;;;;;;;;;;5051328;28;20033;-63
2022/01/22 14:01:48;;;;;;;14.02;7.43;;;;;;;;;;5053168;28;20029;-64
2022/01/22 14:04:15;;;;;;;18.08;10.73;;;;;;;;;;5046363;28;20082;-63
2022/01/22 14:06:46;;;;;;;18.33;8.93;;;;;;;;;;5045773;28;20021;-64
2022/01/22 14:09:19;;;;;;;21.35;11.30;;;;;;;;;;5033478;28;20435;-65
2022/01/22 14:12:03;;;;;;;19.08;10.73;;;;;;;;;;5032513;28;20025;-66
2022/01/22 14:14:32;;;;;;;25.50;14.05;;;;;;;;;;5035711;28;20037;-64
2022/01/22 14:17:12;;;;;;;19.20;10.73;;;;;;;;;;5041804;28;20510;-64
2022/01/22 14:19:38;;;;;;;24.13;14.07;;;;;;;;;;5041842;28;20083;-63
2022/01/22 14:22:04;;;;;;;21.92;12.48;;;;;;;;;;5039718;28;20105;-65
2022/01/22 14:24:30;;;;;;;28.42;14.88;;;;;;;;;;5052091;28;20053;-64
2022/01/22 14:26:56;;;;;;;20.90;11.25;;;;;;;;;;5050781;28;20036;-64
2022/01/22 14:29:23;;;;;;;24.77;14.02;;;;;;;;;;5039581;28;20108;-68
2022/01/22 14:34:33;;;;;;;30.48;17.38;;;;;;;;;;5041823;28;20104;-65
2022/01/22 14:36:59;;;;;;;29.00;16.23;;;;;;;;;;5040003;28;20053;-69
2022/01/22 14:43:47;;;;;;;27.75;15.93;;;;;;;;;;5038304;28;20025;-64
2022/01/22 14:45:06;;;;;;;26.63;15.60;;;;;;;;;;5043351;28;20557;-63
2022/01/22 14:47:32;;;;;;;24.27;14.30;;;;;;;;;;5045500;28;20040;-64
2022/01/22 14:50:01;;;;;;;35.53;19.08;;;;;;;;;;5039936;28;20100;-63
2022/01/22 14:52:27;;;;;;;31.45;17.25;;;;;;;;;;5042838;28;20035;-63
2022/01/22 14:54:56;;;;;;;26.58;14.15;;;;;;;;;;5035058;28;20038;-68
2022/01/22 14:57:23;;;;;;;23.90;13.45;;;;;;;;;;5040076;28;20059;-68
2022/01/22 14:59:49;;;;;;;28.88;15.55;;;;;;;;;;5041298;28;20021;-65
2022/01/22 15:02:16;;;;;;;30.45;17.67;;;;;;;;;;5038892;28;20094;-66
2022/01/22 15:04:43;;;;;;;26.48;15.40;;;;;;;;;;5043749;28;20116;-64
2022/01/22 15:07:10;;;;;;;27.85;16.05;;;;;;;;;;5044141;28;20076;-62
2022/01/22 15:09:37;;;;;;;32.47;17.52;;;;;;;;;;5052283;28;20028;-63
2022/01/22 15:12:03;;;;;;;31.48;16.95;;;;;;;;;;5036645;28;20662;-68
2022/01/22 15:14:29;;;;;;;31.95;18.65;;;;;;;;;;5039276;28;20033;-70
2022/01/22 15:17:51;;;;;;;37.38;19.65;;;;;;;;;;5051840;28;20041;-64
2022/01/22 15:19:49;;;;;;;40.35;20.13;;;;;;;;;;5033379;28;20554;-63
2022/01/22 15:22:17;;;;;;;52.13;26.95;;;;;;;;;;5039862;28;20042;-66
2022/01/22 15:24:44;;;;;;;34.60;19.52;;;;;;;;;;5034944;28;20518;-64
2022/01/22 15:27:12;;;;;;;48.65;23.73;;;;;;;;;;5031486;28;20033;-63
2022/01/22 15:35:00;;;;;;;35.13;19.98;;;;;;;;;;5051444;28;20061;-63
2022/01/22 15:37:26;;;;;;;41.70;21.38;;;;;;;;;;5047220;28;20041;-62
2022/01/22 15:39:52;;;;;;;42.15;22.60;;;;;;;;;;5031972;28;20018;-62
2022/01/22 15:42:18;;;;;;;42.30;22.75;;;;;;;;;;5031685;28;20057;-66
2022/01/22 15:44:44;;;;;;;41.45;20.88;;;;;;;;;;5031681;28;20075;-64
2022/01/22 15:47:11;;;;;;;38.92;21.17;;;;;;;;;;5032051;28;20029;-68
2022/01/22 15:49:41;;;;;;;35.70;18.90;;;;;;;;;;5045954;28;20029;-63
2022/01/22 15:52:07;;;;;;;40.67;21.90;;;;;;;;;;5043512;28;20029;-63
2022/01/22 15:54:33;;;;;;;40.88;21.15;;;;;;;;;;5040188;28;20053;-63
2022/01/22 15:56:59;;;;;;;33.58;19.85;;;;;;;;;;5039467;28;20063;-63
2022/01/22 15:59:26;;;;;;;33.63;18.80;;;;;;;;;;5041358;28;20025;-63
2022/01/22 16:01:52;;;;;;;32.20;18.10;;;;;;;;;;5040044;28;20033;-64
2022/01/22 16:04:19;;;;;;;28.92;17.17;;;;;;;;;;5039766;28;20071;-64
2022/01/22 16:09:21;;;;;;;24.25;12.68;;;;;;;;;;5041445;28;20033;-63
2022/01/22 16:11:48;;;;;;;27.08;14.45;;;;;;;;;;5033553;28;20032;-64
2022/01/22 16:14:15;;;;;;;26.23;14.10;;;;;;;;;;5031290;28;20018;-64
2022/01/22 16:16:43;;;;;;;28.75;14.93;;;;;;;;;;5034796;28;20045;-62
2022/01/22 16:19:10;;;;;;;23.40;13.68;;;;;;;;;;5036940;28;20060;-63
2022/01/22 16:21:36;;;;;;;25.50;14.50;;;;;;;;;;5040676;28;20075;-67
2022/01/22 16:24:02;;;;;;;28.58;15.57;;;;;;;;;;5039881;28;20028;-68
2022/01/22 16:26:28;;;;;;;32.53;16.52;;;;;;;;;;5039313;28;20544;-64
2022/01/22 16:28:54;;;;;;;37.42;18.38;;;;;;;;;;5041720;28;20029;-65
2022/01/22 16:31:21;;;;;;;29.52;16.73;;;;;;;;;;5040444;28;20559;-67
2022/01/22 16:33:47;;;;;;;29.70;16.90;;;;;;;;;;5039297;28;20078;-64
2022/01/22 16:36:14;;;;;;;29.70;15.77;;;;;;;;;;5043572;28;20094;-63
2022/01/22 16:38:41;;;;;;;39.33;19.67;;;;;;;;;;5044671;28;20033;-65
2022/01/22 16:41:08;;;;;;;35.95;19.23;;;;;;;;;;5039762;28;20021;-63
2022/01/22 16:43:36;;;;;;;51.55;25.48;;;;;;;;;;5038827;28;20020;-63
2022/01/22 16:51:37;;;;;;;29.15;16.42;;;;;;;;;;5037838;28;20427;-64
2022/01/22 16:56:44;;;;;;;24.98;14.77;;;;;;;;;;5032965;28;20119;-65
2022/01/22 16:59:17;;;;;;;26.02;16.20;;;;;;;;;;5049713;28;20025;-63
2022/01/22 17:01:46;;;;;;;28.08;17.50;;;;;;;;;;5050106;28;20096;-64
2022/01/22 17:04:17;;;;;;;29.73;17.88;;;;;;;;;;5050475;28;20083;-63
2022/01/22 17:06:44;;;;;;;22.75;13.93;;;;;;;;;;5049551;28;20076;-64
2022/01/22 17:14:30;;;;;;;32.03;19.48;;;;;;;;;;5039199;28;20028;-63
2022/01/22 17:16:56;;;;;;;30.13;16.58;;;;;;;;;;5037894;28;20640;-65
2022/01/22 17:19:27;;;;;;;29.20;16.75;;;;;;;;;;5043589;28;20029;-64
2022/01/22 17:21:54;;;;;;;33.28;17.25;;;;;;;;;;5050014;28;20383;-63
2022/01/22 17:24:20;;;;;;;29.55;17.23;;;;;;;;;;5050108;28;20029;-64
2022/01/22 17:26:46;;;;;;;27.95;16.52;;;;;;;;;;5049894;28;20396;-63
2022/01/22 17:29:13;;;;;;;24.80;14.88;;;;;;;;;;5050226;28;20082;-65
2022/01/22 17:31:39;;;;;;;32.20;18.02;;;;;;;;;;5049961;28;20100;-64
2022/01/22 17:34:05;;;;;;;39.58;22.45;;;;;;;;;;5050297;28;20028;-63
2022/01/22 17:36:31;;;;;;;39.63;22.02;;;;;;;;;;5042501;28;20076;-62
2022/01/22 17:39:00;;;;;;;49.47;25.67;;;;;;;;;;5030024;28;20041;-66
2022/01/22 17:41:26;;;;;;;53.08;26.77;;;;;;;;;;5039307;28;20025;-64
2022/01/22 17:43:54;;;;;;;62.10;31.52;;;;;;;;;;5039707;28;20044;-65
2022/01/22 17:46:20;;;;;;;75.38;36.70;;;;;;;;;;5043077;28;20025;-64
2022/01/22 17:48:46;;;;;;;72.03;36.58;;;;;;;;;;5041243;28;20154;-63
2022/01/22 17:51:13;;;;;;;78.20;39.38;;;;;;;;;;5039590;28;20492;-64
2022/01/22 17:53:39;;;;;;;62.38;32.10;;;;;;;;;;5038383;28;20029;-64
2022/01/22 17:56:06;;;;;;;51.45;26.80;;;;;;;;;;5040702;28;20040;-63
2022/01/22 17:58:32;;;;;;;44.88;23.50;;;;;;;;;;5050593;28;20033;-63
2022/01/22 18:01:01;;;;;;;41.67;23.65;;;;;;;;;;5041411;28;20036;-63
2022/01/22 18:03:28;;;;;;;45.58;24.95;;;;;;;;;;5047097;28;20021;-62
2022/01/22 18:05:56;;;;;;;46.80;26.13;;;;;;;;;;5048208;28;20087;-62
2022/01/22 18:08:22;;;;;;;51.30;27.52;;;;;;;;;;5036607;28;20025;-64
2022/01/22 18:10:50;;;;;;;48.67;26.77;;;;;;;;;;5038155;28;20112;-66
2022/01/22 18:13:16;;;;;;;49.80;27.38;;;;;;;;;;5043261;28;20021;-66
2022/01/22 18:15:44;;;;;;;49.30;27.10;;;;;;;;;;5040725;28;20075;-67
2022/01/22 18:18:10;;;;;;;44.83;26.05;;;;;;;;;;5042387;28;20049;-61
2022/01/22 18:20:36;;;;;;;49.92;26.33;;;;;;;;;;5040811;28;20025;-64
2022/01/22 18:23:03;;;;;;;50.28;26.63;;;;;;;;;;5042033;28;20037;-62
2022/01/22 18:25:29;;;;;;;52.90;29.05;;;;;;;;;;5043832;28;20017;-65
2022/01/22 18:27:55;;;;;;;48.88;26.33;;;;;;;;;;5374522;22;20088;-63
2022/01/22 18:30:25;;;;;;;44.78;25.52;;;;;;;;;;5013149;28;20045;-67
2022/01/22 18:32:51;;;;;;;50.80;28.00;;;;;;;;;;5001889;28;20025;-65
2022/01/22 18:35:17;;;;;;;47.65;27.55;;;;;;;;;;5000532;28;20065;-63
2022/01/22 18:37:43;;;;;;;48.53;26.17;;;;;;;;;;4993293;28;20038;-64
2022/01/22 18:40:09;;;;;;;47.95;27.65;;;;;;;;;;4998778;28;20037;-61
2022/01/22 18:42:39;;;;;;;98.10;50.38;;;;;;;;;;5006010;28;20029;-64
2022/01/22 18:45:10;;;;;;;134.27;65.18;;;;;;;;;;5000399;28;20064;-62
2022/01/22 18:47:36;;;;;;;107.50;53.53;;;;;;;;;;5013294;28;20482;-61
2022/01/22 18:50:02;;;;;;;83.72;42.75;;;;;;;;;;5012161;28;20147;-64
2022/01/22 18:52:30;;;;;;;69.50;38.75;;;;;;;;;;5003572;28;20088;-62
2022/01/22 18:54:56;;;;;;;54.10;30.65;;;;;;;;;;5001192;28;20029;-61
2022/01/22 18:57:22;;;;;;;66.68;36.67;;;;;;;;;;5001781;28;20034;-65
2022/01/22 18:59:48;;;;;;;76.25;40.83;;;;;;;;;;5005492;28;20042;-64
2022/01/22 19:02:15;;;;;;;90.57;45.83;;;;;;;;;;5003829;28;20033;-63
2022/01/22 19:04:41;;;;;;;92.35;46.30;;;;;;;;;;4997257;28;20023;-62
2022/01/22 19:07:11;;;;;;;89.60;47.05;;;;;;;;;;5000452;28;20065;-64
2022/01/22 19:09:38;;;;;;;66.10;37.40;;;;;;;;;;4998057;28;20480;-63
2022/01/22 19:12:04;;;;;;;62.58;35.28;;;;;;;;;;4995823;28;20030;-64
2022/01/22 19:14:30;;;;;;;57.17;32.33;;;;;;;;;;4992825;28;20033;-63
2022/01/22 19:16:56;;;;;;;64.97;34.80;;;;;;;;;;5001543;28;20036;-62
2022/01/22 19:19:23;;;;;;;61.47;34.30;;;;;;;;;;5012184;28;20029;-62
2022/01/22 19:29:31;;;;;;;133.07;65.47;;;;;;;;;;4990241;28;20054;-64
2022/01/22 19:31:57;;;;;;;163.95;80.15;;;;;;;;;;4990470;28;20056;-64
2022/01/22 19:34:24;;;;;;;160.85;85.63;;;;;;;;;;4989392;28;20386;-64
2022/01/22 19:36:52;;;;;;;158.52;88.88;;;;;;;;;;4990546;28;20076;-60
2022/01/22 19:39:18;;;;;;;164.80;88.55;;;;;;;;;;4977192;28;20051;-64
2022/01/22 19:41:46;;;;;;;165.10;88.50;;;;;;;;;;4980080;28;20498;-63
2022/01/22 19:44:22;;;;;;;153.35;82.60;;;;;;;;;;4977934;28;20402;-65
2022/01/22 19:46:49;;;;;;;143.68;74.65;;;;;;;;;;4979803;28;20042;-62
2022/01/22 19:49:16;;;;;;;120.10;64.88;;;;;;;;;;4980053;28;20395;-64
2022/01/22 19:51:42;;;;;;;144.07;74.20;;;;;;;;;;4978055;28;20098;-61
2022/01/22 19:54:09;;;;;;;150.02;78.43;;;;;;;;;;4978792;28;20034;-61
2022/01/22 19:56:35;;;;;;;145.82;77.53;;;;;;;;;;4979448;28;20084;-66
2022/01/22 19:59:02;;;;;;;137.88;73.70;;;;;;;;;;4979553;28;20073;-62
2022/01/22 20:01:29;;;;;;;132.30;67.85;;;;;;;;;;4978776;28;20060;-64
2022/01/22 20:03:55;;;;;;;127.75;68.30;;;;;;;;;;4981874;28;20034;-65
2022/01/22 20:06:23;;;;;;;127.15;64.00;;;;;;;;;;4982881;28;20022;-64
2022/01/22 20:08:51;;;;;;;141.55;69.18;;;;;;;;;;4982092;28;20114;-63
2022/01/22 20:11:18;;;;;;;230.55;102.07;;;;;;;;;;4980098;28;20153;-64
2022/01/22 20:13:49;;;;;;;158.25;79.55;;;;;;;;;;4978620;28;20131;-63
2022/01/22 20:16:15;;;;;;;194.18;94.93;;;;;;;;;;4972068;28;20113;-63
2022/01/22 20:18:41;;;;;;;200.18;97.40;;;;;;;;;;4972916;28;20030;-63
2022/01/22 20:21:07;;;;;;;174.75;87.43;;;;;;;;;;4972470;28;20433;-62
2022/01/22 20:23:34;;;;;;;162.70;81.30;;;;;;;;;;4976786;28;20109;-63
2022/01/22 20:26:00;;;;;;;146.38;76.30;;;;;;;;;;4979908;28;20038;-63
2022/01/22 20:28:26;;;;;;;142.07;71.57;;;;;;;;;;4991099;28;20100;-63
2022/01/22 20:30:53;;;;;;;124.28;64.68;;;;;;;;;;4991658;28;20509;-63
2022/01/22 20:33:20;;;;;;;121.43;61.67;;;;;;;;;;4991815;28;20034;-63
2022/01/22 20:35:47;;;;;;;105.85;53.50;;;;;;;;;;4992182;28;20058;-62
2022/01/22 20:38:14;;;;;;;108.95;53.58;;;;;;;;;;4992029;28;20089;-63
2022/01/22 20:40:40;;;;;;;106.97;54.72;;;;;;;;;;4987420;28;20034;-64
2022/01/22 20:43:06;;;;;;;97.75;49.80;;;;;;;;;;4981232;28;20497;-64
2022/01/22 20:45:33;;;;;;;80.22;40.90;;;;;;;;;;5003059;28;20072;-64
2022/01/22 20:48:01;;;;;;;81.20;43.03;;;;;;;;;;4981989;28;20030;-63
2022/01/22 20:50:28;;;;;;;71.00;37.25;;;;;;;;;;4980430;28;20025;-62
2022/01/22 20:52:55;;;;;;;49.83;25.98;;;;;;;;;;4980396;28;20092;-64
2022/01/22 20:55:22;;;;;;;53.67;25.42;;;;;;;;;;4981356;28;20027;-62
2022/01/22 20:57:54;;;;;;;44.13;23.25;;;;;;;;;;4978046;28;20536;-64
2022/01/22 21:00:24;;;;;;;45.92;24.15;;;;;;;;;;4974108;28;20081;-63
2022/01/22 21:02:50;;;;;;;39.30;22.17;;;;;;;;;;4981341;28;20529;-63
2022/01/22 21:05:17;;;;;;;40.72;21.05;;;;;;;;;;4981283;28;20030;-63
2022/01/22 21:07:46;;;;;;;36.35;19.58;;;;;;;;;;4980852;28;20026;-64
2022/01/22 21:10:14;;;;;;;35.42;19.10;;;;;;;;;;4981353;28;20389;-63
2022/01/22 21:12:40;;;;;;;36.83;21.20;;;;;;;;;;4977194;28;20018;-63
2022/01/22 21:15:06;;;;;;;38.67;21.20;;;;;;;;;;4978749;28;20545;-64
2022/01/22 21:17:32;;;;;;;39.97;21.10;;;;;;;;;;4981295;28;20899;-63
2022/01/22 21:19:58;;;;;;;38.70;20.05;;;;;;;;;;4983450;28;20742;-63
2022/01/22 21:22:25;;;;;;;35.60;19.92;;;;;;;;;;4990000;28;20482;-63
2022/01/22 21:24:51;;;;;;;38.20;20.20;;;;;;;;;;4984891;28;20042;-63
2022/01/22 21:27:18;;;;;;;34.55;20.00;;;;;;;;;;4983651;28;20060;-64
2022/01/22 21:29:44;;;;;;;37.15;20.42;;;;;;;;;;4973763;28;20070;-63
2022/01/22 21:32:11;;;;;;;37.35;19.77;;;;;;;;;;4975119;28;20430;-63
2022/01/22 21:34:38;;;;;;;39.90;21.05;;;;;;;;;;4975271;28;20054;-64
2022/01/22 21:42:10;;;;;;;38.35;18.48;;;;;;;;;;4994456;28;20165;-64
2022/01/22 21:44:36;;;;;;;33.58;18.92;;;;;;;;;;4994836;28;20029;-63
2022/01/22 21:47:02;;;;;;;37.67;20.75;;;;;;;;;;4994947;28;20045;-63
2022/01/22 21:49:28;;;;;;;41.75;20.70;;;;;;;;;;4994017;28;20049;-65
2022/01/22 21:51:54;;;;;;;39.30;21.25;;;;;;;;;;4994949;28;20034;-64
2022/01/22 21:54:20;;;;;;;42.45;21.45;;;;;;;;;;4984980;28;20026;-63
2022/01/22 21:56:46;;;;;;;39.05;19.73;;;;;;;;;;4981932;28;20049;-62
2022/01/22 21:59:12;;;;;;;40.33;22.15;;;;;;;;;;4983290;28;20051;-64
2022/01/22 22:01:38;;;;;;;44.22;21.83;;;;;;;;;;4984513;28;20045;-63
2022/01/22 22:04:05;;;;;;;46.95;23.27;;;;;;;;;;4984490;28;20037;-61
2022/01/22 22:06:31;;;;;;;45.70;23.77;;;;;;;;;;4983185;28;20023;-63
2022/01/22 22:08:57;;;;;;;41.13;22.08;;;;;;;;;;4983256;28;20220;-62
2022/01/22 22:11:23;;;;;;;44.97;23.25;;;;;;;;;;4984286;28;20026;-63
2022/01/22 22:13:49;;;;;;;41.00;22.65;;;;;;;;;;4981972;28;20101;-63
2022/01/22 22:16:15;;;;;;;46.78;23.35;;;;;;;;;;4982694;28;20049;-64
2022/01/22 22:18:43;;;;;;;45.88;23.17;;;;;;;;;;4984415;28;20035;-63
2022/01/22 22:21:12;;;;;;;45.60;22.63;;;;;;;;;;4983257;28;20542;-63
2022/01/22 22:23:39;;;;;;;43.00;21.88;;;;;;;;;;4983142;28;20050;-63
2022/01/22 22:26:05;;;;;;;43.65;21.70;;;;;;;;;;4981441;28;20054;-62
2022/01/22 22:28:31;;;;;;;41.10;21.02;;;;;;;;;;4981022;28;20058;-63
2022/01/22 22:31:06;;;;;;;36.33;19.02;;;;;;;;;;4982658;28;20031;-63
2022/01/22 22:33:32;;;;;;;34.25;19.42;;;;;;;;;;4981964;28;20367;-62
2022/01/22 22:35:59;;;;;;;36.50;18.73;;;;;;;;;;4993908;28;20031;-62
2022/01/22 22:38:25;;;;;;;38.97;18.60;;;;;;;;;;4994153;28;20456;-62
2022/01/22 22:40:54;;;;;;;44.03;19.80;;;;;;;;;;4993732;28;20183;-61
2022/01/22 22:43:21;;;;;;;42.25;20.00;;;;;;;;;;4993927;28;20437;-61